Time;durP1;ratioP1;P1;durP2;ratioP2;P2;SDS_P1;SDS_P2;PMS_P1;PMS_P2;Temp;Humidity;BMP_temperature;BMP_pressure;BME280_temperature;BME280_humidity;BME280_pressure;Samples;Min_cycle;Max_cycle;Signal;HPM_P1;HPM_P2
2023/06/10 00:00:14;;;;;;;10.23;6.43;;;17.00;99.90;;;;;;5019299;28;90042;-36
2023/06/10 00:02:41;;;;;;;7.95;6.72;;;16.90;99.90;;;;;;5019133;28;90393;-34
2023/06/10 00:05:08;;;;;;;7.28;5.78;;;16.90;99.90;;;;;;5018904;28;89942;-36
2023/06/10 00:07:37;;;;;;;9.70;5.93;;;16.90;99.90;;;;;;5019006;28;89455;-38
2023/06/10 00:10:05;;;;;;;9.25;5.95;;;16.80;99.90;;;;;;5019456;28;89364;-37
2023/06/10 00:12:36;;;;;;;9.38;5.35;;;16.70;99.90;;;;;;5019068;28;88725;-32
2023/06/10 00:15:03;;;;;;;6.13;5.50;;;16.70;99.90;;;;;;5019437;28;90313;-32
2023/06/10 00:17:29;;;;;;;10.05;6.22;;;16.70;99.90;;;;;;5019821;28;88837;-30
2023/06/10 00:19:55;;;;;;;12.48;6.45;;;16.70;99.90;;;;;;5019284;28;90246;-34
2023/06/10 00:22:22;;;;;;;9.88;6.43;;;16.70;99.90;;;;;;5019067;28;89598;-33
2023/06/10 00:24:47;;;;;;;11.85;6.93;;;16.70;99.90;;;;;;5019366;28;89775;-31
2023/06/10 00:27:13;;;;;;;10.23;7.60;;;16.70;99.90;;;;;;5018308;28;89271;-38
2023/06/10 00:29:39;;;;;;;8.57;6.97;;;16.70;99.90;;;;;;5019579;28;89817;-32
2023/06/10 00:32:05;;;;;;;8.90;6.53;;;16.70;99.90;;;;;;5018379;28;89799;-32
2023/06/10 00:34:32;;;;;;;11.10;7.72;;;16.60;99.90;;;;;;5019032;28;88248;-35
2023/06/10 00:36:57;;;;;;;9.20;7.15;;;16.60;99.90;;;;;;5019518;28;88196;-31
2023/06/10 00:39:23;;;;;;;16.80;7.25;;;16.60;99.90;;;;;;5019177;28;90209;-33
2023/06/10 00:41:49;;;;;;;11.52;6.85;;;16.60;99.90;;;;;;5000953;28;89023;-36
2023/06/10 00:44:15;;;;;;;10.18;7.80;;;16.70;99.90;;;;;;5018343;28;90139;-36
2023/06/10 00:46:41;;;;;;;8.82;7.40;;;16.70;99.90;;;;;;5019450;28;89464;-38
2023/06/10 00:49:07;;;;;;;11.43;7.63;;;16.80;99.90;;;;;;5018918;28;89251;-35
2023/06/10 00:51:34;;;;;;;10.85;7.25;;;16.70;99.90;;;;;;5018772;28;89268;-30
2023/06/10 00:54:00;;;;;;;12.70;7.90;;;16.70;99.90;;;;;;5018721;28;89809;-33
2023/06/10 00:56:25;;;;;;;7.40;6.47;;;16.60;99.90;;;;;;5018965;28;90387;-31
2023/06/10 00:58:51;;;;;;;9.38;8.15;;;16.50;99.90;;;;;;5018190;28;90288;-33
2023/06/10 01:01:17;;;;;;;9.15;7.65;;;16.50;99.90;;;;;;5019103;28;89937;-31
2023/06/10 01:03:45;;;;;;;14.23;8.05;;;16.40;99.90;;;;;;5018318;28;89579;-37
2023/06/10 01:06:47;;;;;;;8.20;7.40;;;16.40;99.90;;;;;;5018354;28;88456;-35
2023/06/10 01:09:40;;;;;;;13.65;8.68;;;16.30;99.90;;;;;;5008951;28;89868;-33
2023/06/10 01:12:15;;;;;;;9.57;8.10;;;16.20;99.90;;;;;;5018186;27;89220;-37
2023/06/10 01:14:45;;;;;;;9.88;7.75;;;16.20;99.90;;;;;;5022462;28;89398;-34
2023/06/10 01:17:11;;;;;;;9.77;8.45;;;16.20;99.90;;;;;;5022436;28;90555;-34
2023/06/10 01:19:37;;;;;;;11.15;7.55;;;16.20;99.90;;;;;;5021777;28;90128;-36
2023/06/10 01:22:04;;;;;;;11.43;8.00;;;16.10;99.90;;;;;;5021959;28;89845;-33
2023/06/10 01:24:33;;;;;;;8.85;7.50;;;16.10;99.90;;;;;;5004315;28;90061;-33
2023/06/10 01:27:01;;;;;;;9.35;6.60;;;16.00;99.90;;;;;;5004974;28;88628;-31
2023/06/10 01:29:40;;;;;;;11.68;7.13;;;16.10;99.90;;;;;;5021520;28;90205;-34
2023/06/10 01:32:18;;;;;;;11.48;7.75;;;16.00;99.90;;;;;;5021468;28;89695;-33
2023/06/10 01:34:45;;;;;;;17.58;7.53;;;15.90;99.90;;;;;;5021789;28;89593;-34
2023/06/10 01:37:18;;;;;;;13.57;8.32;;;15.90;99.90;;;;;;5003921;28;89392;-32
2023/06/10 01:39:46;;;;;;;12.45;7.93;;;15.90;99.90;;;;;;5021710;28;89963;-35
2023/06/10 01:42:12;;;;;;;10.85;7.30;;;15.70;99.90;;;;;;5020805;28;90270;-31
2023/06/10 01:44:39;;;;;;;12.20;7.53;;;15.90;99.90;;;;;;5021894;28;90394;-34
2023/06/10 01:47:05;;;;;;;9.55;7.97;;;15.90;99.90;;;;;;5021839;28;89363;-32
2023/06/10 01:49:31;;;;;;;11.02;8.75;;;15.80;99.90;;;;;;5021333;28;90059;-32
2023/06/10 01:51:56;;;;;;;14.80;7.70;;;15.80;99.90;;;;;;5022042;28;89585;-35
2023/06/10 01:54:22;;;;;;;15.35;8.45;;;15.70;99.90;;;;;;5021440;28;88902;-36
2023/06/10 01:56:47;;;;;;;12.45;7.28;;;15.70;99.90;;;;;;5021776;28;87683;-33
2023/06/10 01:59:13;;;;;;;9.60;7.30;;;15.60;99.90;;;;;;5021614;28;91539;-35
2023/06/10 02:01:39;;;;;;;11.13;7.65;;;15.50;99.90;;;;;;5021095;28;90312;-34
2023/06/10 02:04:04;;;;;;;12.15;8.18;;;15.40;99.90;;;;;;5021496;28;91044;-31
2023/06/10 02:06:30;;;;;;;14.50;8.23;;;15.40;99.90;;;;;;5020361;28;90329;-31
2023/06/10 02:08:56;;;;;;;14.23;7.72;;;15.30;99.90;;;;;;5021736;28;90213;-32
2023/06/10 02:11:21;;;;;;;14.48;8.25;;;15.30;99.90;;;;;;5019900;28;90457;-32
2023/06/10 02:13:47;;;;;;;14.70;8.65;;;15.20;99.90;;;;;;5021799;28;90003;-33
2023/06/10 02:16:13;;;;;;;12.70;8.65;;;15.10;99.90;;;;;;5021366;28;89103;-32
2023/06/10 02:18:42;;;;;;;12.30;7.82;;;15.10;99.90;;;;;;5021107;28;90083;-34
2023/06/10 02:21:08;;;;;;;9.65;7.38;;;15.00;99.90;;;;;;5020336;28;89837;-36
2023/06/10 02:23:34;;;;;;;13.82;9.05;;;14.90;99.90;;;;;;5020369;27;88553;-31
2023/06/10 02:26:00;;;;;;;14.05;7.82;;;14.90;99.90;;;;;;5020983;28;88391;-36
2023/06/10 02:28:26;;;;;;;10.63;8.13;;;14.90;99.90;;;;;;5021101;28;91648;-32
2023/06/10 02:30:52;;;;;;;14.73;8.15;;;14.80;99.90;;;;;;5020535;28;91035;-32
2023/06/10 02:33:18;;;;;;;9.85;7.28;;;14.90;99.90;;;;;;5002391;28;91873;-31
2023/06/10 02:35:43;;;;;;;9.98;7.53;;;14.90;99.90;;;;;;5021156;28;89095;-31
2023/06/10 02:38:09;;;;;;;13.07;7.53;;;14.80;99.90;;;;;;5020237;28;88612;-31
2023/06/10 02:40:35;;;;;;;12.98;7.57;;;14.80;99.90;;;;;;5020320;28;90208;-36
2023/06/10 02:43:00;;;;;;;10.57;7.65;;;14.80;99.90;;;;;;5020305;28;89487;-36
2023/06/10 02:45:26;;;;;;;11.32;7.30;;;14.80;99.90;;;;;;5020230;28;88866;-36
2023/06/10 02:47:51;;;;;;;11.02;7.45;;;14.80;99.90;;;;;;5020591;28;90272;-34
2023/06/10 02:50:17;;;;;;;11.35;7.97;;;14.70;99.90;;;;;;5020266;28;89652;-34
2023/06/10 02:52:43;;;;;;;13.63;7.72;;;14.60;99.90;;;;;;5020691;28;90271;-34
2023/06/10 02:55:09;;;;;;;12.95;7.82;;;14.60;99.90;;;;;;5019765;28;89207;-36
2023/06/10 02:57:35;;;;;;;13.68;7.95;;;14.60;99.90;;;;;;5020631;28;89738;-34
2023/06/10 03:00:02;;;;;;;12.25;8.60;;;14.50;99.90;;;;;;5020407;28;89976;-33
2023/06/10 03:02:28;;;;;;;9.48;7.35;;;14.60;99.90;;;;;;5020064;28;90068;-32
2023/06/10 03:04:57;;;;;;;11.10;8.30;;;14.50;99.90;;;;;;5020852;28;89293;-34
2023/06/10 03:07:23;;;;;;;13.70;8.93;;;14.40;99.90;;;;;;5020785;28;89496;-34
2023/06/10 03:09:49;;;;;;;14.65;8.98;;;14.30;99.90;;;;;;5019799;28;90002;-31
2023/06/10 03:12:15;;;;;;;12.98;7.05;;;14.30;99.90;;;;;;5020107;28;89021;-35
2023/06/10 03:14:41;;;;;;;10.38;7.28;;;14.40;99.90;;;;;;5020824;28;89141;-31
2023/06/10 03:17:08;;;;;;;8.93;6.68;;;14.40;99.90;;;;;;5019580;28;90298;-35
2023/06/10 03:19:34;;;;;;;12.40;8.30;;;14.40;99.90;;;;;;5019963;28;89412;-37
2023/06/10 03:22:10;;;;;;;12.68;9.40;;;14.40;99.90;;;;;;5019930;28;91195;-33
2023/06/10 03:24:36;;;;;;;11.48;8.55;;;14.40;99.90;;;;;;5019861;28;89132;-36
2023/06/10 03:27:04;;;;;;;11.80;7.53;;;14.40;99.90;;;;;;5020220;28;89654;-33
2023/06/10 03:29:30;;;;;;;16.33;8.88;;;14.40;99.90;;;;;;5019728;28;89652;-33
2023/06/10 03:31:56;;;;;;;11.70;7.82;;;14.40;99.90;;;;;;5019791;28;89392;-33
2023/06/10 03:34:23;;;;;;;12.10;7.25;;;14.30;99.90;;;;;;5020026;28;89363;-37
2023/06/10 03:36:49;;;;;;;11.85;8.70;;;14.30;99.90;;;;;;5019469;27;89868;-30
2023/06/10 03:39:15;;;;;;;15.07;7.65;;;14.30;99.90;;;;;;5019219;28;89210;-36
2023/06/10 03:41:40;;;;;;;13.82;8.93;;;14.30;99.90;;;;;;5020377;28;89205;-32
2023/06/10 03:44:06;;;;;;;12.18;7.82;;;14.30;99.90;;;;;;5019289;28;88016;-35
2023/06/10 03:46:32;;;;;;;15.10;9.60;;;14.30;99.90;;;;;;5019655;28;90080;-33
2023/06/10 03:49:00;;;;;;;13.20;9.05;;;14.20;99.90;;;;;;5019521;28;90359;-32
2023/06/10 03:51:26;;;;;;;10.82;8.05;;;14.20;99.90;;;;;;5019405;28;89074;-33
2023/06/10 03:53:52;;;;;;;12.57;9.32;;;14.20;99.90;;;;;;5019462;28;89126;-36
2023/06/10 03:56:17;;;;;;;12.48;9.25;;;14.20;99.90;;;;;;5001551;28;90025;-31
2023/06/10 03:58:43;;;;;;;14.32;9.60;;;14.10;99.90;;;;;;5018574;28;89711;-32
2023/06/10 04:01:10;;;;;;;10.07;8.38;;;14.20;99.90;;;;;;5019855;28;90013;-32
2023/06/10 04:03:36;;;;;;;13.20;9.35;;;14.20;99.90;;;;;;5018059;28;89756;-35
2023/06/10 04:06:02;;;;;;;13.70;8.98;;;14.20;99.90;;;;;;5018949;28;90428;-34
2023/06/10 04:08:28;;;;;;;11.10;8.05;;;14.20;99.90;;;;;;5018523;28;90573;-33
2023/06/10 04:10:53;;;;;;;11.40;10.15;;;14.20;99.90;;;;;;5019086;28;90730;-31
2023/06/10 04:13:19;;;;;;;14.25;9.32;;;14.20;99.90;;;;;;5019126;28;88506;-31
2023/06/10 04:15:45;;;;;;;14.07;9.70;;;14.20;99.90;;;;;;5020293;28;89651;-33
2023/06/10 04:18:10;;;;;;;11.65;8.80;;;14.20;99.90;;;;;;5018339;28;89746;-36
2023/06/10 04:20:36;;;;;;;14.52;10.27;;;14.30;99.90;;;;;;5013927;28;90052;-31
2023/06/10 04:23:02;;;;;;;11.07;8.38;;;14.30;99.90;;;;;;5015674;28;89407;-32
2023/06/10 04:25:28;;;;;;;11.13;9.38;;;14.40;99.90;;;;;;5019636;28;90322;-32
2023/06/10 04:27:54;;;;;;;18.30;9.15;;;14.40;99.90;;;;;;5039139;22;89930;-33
2023/06/10 04:30:20;;;;;;;12.48;8.52;;;14.50;99.90;;;;;;4998968;28;89350;-36
2023/06/10 04:32:46;;;;;;;9.88;8.98;;;14.50;99.90;;;;;;4998486;28;88216;-30
2023/06/10 04:35:13;;;;;;;12.48;9.40;;;14.70;99.90;;;;;;4998952;28;90341;-33
2023/06/10 04:37:40;;;;;;;11.43;8.95;;;14.70;99.90;;;;;;4999194;28;89552;-37
2023/06/10 04:40:07;;;;;;;16.38;9.27;;;14.90;99.90;;;;;;4999176;28;89027;-38
2023/06/10 04:42:32;;;;;;;13.93;9.05;;;15.00;99.90;;;;;;4998663;28;88769;-33
2023/06/10 04:44:58;;;;;;;15.82;10.25;;;15.10;99.90;;;;;;4999331;28;89731;-35
2023/06/10 04:47:24;;;;;;;12.15;9.02;;;15.20;99.90;;;;;;4997992;28;90974;-31
2023/06/10 04:49:49;;;;;;;11.80;9.88;;;15.30;99.90;;;;;;4999181;28;89164;-32
2023/06/10 04:52:15;;;;;;;13.02;10.23;;;15.40;99.90;;;;;;4998825;28;88275;-34
2023/06/10 04:54:40;;;;;;;12.50;9.55;;;15.50;99.90;;;;;;4998077;28;90304;-36
2023/06/10 04:57:11;;;;;;;17.33;9.65;;;15.60;99.90;;;;;;4997997;28;91113;-36
2023/06/10 04:59:38;;;;;;;12.70;9.57;;;15.70;99.90;;;;;;4998768;28;90358;-37
2023/06/10 05:02:06;;;;;;;10.43;8.77;;;15.70;99.90;;;;;;4999255;28;88379;-31
2023/06/10 05:04:31;;;;;;;;;;;15.80;99.90;;;;;;4999279;28;90370;-35
2023/06/10 05:06:57;;;;;;;10.85;9.25;;;15.90;99.90;;;;;;4999640;28;89737;-38
2023/06/10 05:09:23;;;;;;;14.45;10.13;;;16.00;99.90;;;;;;4997459;28;90598;-31
2023/06/10 05:11:48;;;;;;;10.80;7.72;;;16.10;99.90;;;;;;4997575;28;90292;-31
2023/06/10 05:14:16;;;;;;;12.30;9.80;;;16.20;99.90;;;;;;4999093;28;90140;-35
2023/06/10 05:16:43;;;;;;;14.40;10.05;;;16.30;99.90;;;;;;4999671;28;89744;-34
2023/06/10 05:19:08;;;;;;;16.02;9.60;;;16.40;99.90;;;;;;4997572;28;89263;-31
2023/06/10 05:21:34;;;;;;;15.23;9.10;;;16.50;99.90;;;;;;4998337;28;88899;-36
2023/06/10 05:24:00;;;;;;;14.25;10.38;;;16.60;99.90;;;;;;4998962;28;91307;-31
2023/06/10 05:26:25;;;;;;;16.65;9.80;;;16.60;99.90;;;;;;4997796;28;90265;-33
2023/06/10 05:28:52;;;;;;;11.52;9.45;;;16.70;99.90;;;;;;4998478;28;89339;-36
2023/06/10 05:31:18;;;;;;;14.63;9.43;;;16.80;99.90;;;;;;4998162;28;88994;-37
2023/06/10 05:33:43;;;;;;;13.02;9.75;;;16.90;99.90;;;;;;4998775;28;90105;-35
2023/06/10 05:36:09;;;;;;;13.23;9.45;;;17.10;99.90;;;;;;4997862;28;89903;-34
2023/06/10 05:38:34;;;;;;;10.65;8.10;;;17.20;99.90;;;;;;4998918;28;89601;-34
2023/06/10 05:41:00;;;;;;;12.15;9.77;;;17.30;99.90;;;;;;4997805;28;88804;-32
2023/06/10 05:43:25;;;;;;;11.05;8.52;;;17.40;99.90;;;;;;4997362;28;90360;-33
2023/06/10 05:45:51;;;;;;;12.35;9.18;;;17.50;99.90;;;;;;4997892;28;90365;-31
2023/06/10 05:48:17;;;;;;;11.75;9.02;;;17.60;99.90;;;;;;4996699;28;90129;-31
2023/06/10 05:50:47;;;;;;;13.52;9.38;;;17.60;99.90;;;;;;4999020;28;88232;-33
2023/06/10 05:53:14;;;;;;;14.20;9.60;;;17.80;99.90;;;;;;4998061;28;88783;-36
2023/06/10 05:55:46;;;;;;;14.63;8.98;;;17.90;99.90;;;;;;4998115;28;89917;-31
2023/06/10 05:58:13;;;;;;;10.85;8.13;;;17.90;99.90;;;;;;4998674;28;89828;-33
2023/06/10 06:00:39;;;;;;;11.77;8.52;;;18.10;99.90;;;;;;5001860;28;89523;-31
2023/06/10 06:03:08;;;;;;;12.93;9.05;;;18.10;99.90;;;;;;5001724;28;90158;-32
2023/06/10 06:05:35;;;;;;;15.02;8.57;;;18.30;99.90;;;;;;4988913;28;89508;-34
2023/06/10 06:08:04;;;;;;;14.73;8.30;;;18.40;99.90;;;;;;5001104;28;88959;-33
2023/06/10 06:10:30;;;;;;;9.25;8.32;;;18.40;99.90;;;;;;5001497;28;89892;-34
2023/06/10 06:12:56;;;;;;;13.73;9.93;;;18.50;99.90;;;;;;5001207;28;91109;-33
2023/06/10 06:15:21;;;;;;;10.73;8.90;;;18.60;99.90;;;;;;5001008;28;90169;-32
2023/06/10 06:17:47;;;;;;;13.18;9.75;;;18.70;99.90;;;;;;5001835;28;89494;-32
2023/06/10 06:20:13;;;;;;;16.70;9.75;;;18.80;99.90;;;;;;5000646;28;88337;-30
2023/06/10 06:22:38;;;;;;;11.40;8.30;;;19.00;99.90;;;;;;5001416;28;90162;-33
2023/06/10 06:25:05;;;;;;;10.20;9.13;;;19.10;99.90;;;;;;5001202;28;90636;-31
2023/06/10 06:27:31;;;;;;;12.10;8.60;;;19.10;99.90;;;;;;5000196;28;89366;-34
2023/06/10 06:29:56;;;;;;;10.35;8.35;;;19.10;99.90;;;;;;5000716;28;88895;-32
2023/06/10 06:32:24;;;;;;;8.75;7.65;;;19.10;99.90;;;;;;5000145;28;90357;-34
2023/06/10 06:34:53;;;;;;;12.60;8.15;;;19.20;99.90;;;;;;5000958;28;90341;-35
2023/06/10 06:37:21;;;;;;;10.98;8.65;;;19.40;99.90;;;;;;5001220;28;90182;-37
2023/06/10 06:39:47;;;;;;;9.90;9.00;;;19.60;99.90;;;;;;5000393;28;89532;-31
2023/06/10 06:42:13;;;;;;;13.90;8.70;;;19.70;99.90;;;;;;5000519;28;90145;-34
2023/06/10 06:44:38;;;;;;;13.25;8.82;;;19.80;99.90;;;;;;5001714;28;89649;-34
2023/06/10 06:47:04;;;;;;;12.45;9.15;;;20.00;99.90;;;;;;5001212;28;88234;-32
2023/06/10 06:49:30;;;;;;;10.68;7.85;;;20.00;99.90;;;;;;5000330;28;89257;-37
2023/06/10 06:51:55;;;;;;;11.93;7.13;;;19.90;99.90;;;;;;5001835;28;90783;-31
2023/06/10 06:54:21;;;;;;;11.60;6.78;;;20.00;99.90;;;;;;5000908;28;89283;-30
2023/06/10 06:56:46;;;;;;;12.65;9.63;;;20.20;99.90;;;;;;5000772;28;89364;-32
2023/06/10 06:59:13;;;;;;;13.07;8.70;;;20.10;99.90;;;;;;4999718;28;89566;-32
2023/06/10 07:01:39;;;;;;;12.93;8.98;;;20.20;99.90;;;;;;5000407;28;89873;-36
2023/06/10 07:04:05;;;;;;;13.75;9.10;;;20.20;99.90;;;;;;5001470;28;89598;-30
2023/06/10 07:06:30;;;;;;;15.20;10.73;;;20.40;99.90;;;;;;4996066;28;90013;-34
2023/06/10 07:08:56;;;;;;;13.43;10.20;;;20.30;99.90;;;;;;4998275;28;89160;-35
2023/06/10 07:11:22;;;;;;;12.23;8.80;;;20.40;99.90;;;;;;4997508;28;89255;-32
2023/06/10 07:13:47;;;;;;;13.93;11.82;;;20.40;99.90;;;;;;4997089;28;89733;-36
2023/06/10 07:16:13;;;;;;;14.40;10.88;;;20.50;99.90;;;;;;4998304;28;89957;-34
2023/06/10 07:18:39;;;;;;;15.18;12.73;;;20.50;99.90;;;;;;4997770;28;88021;-32
2023/06/10 07:21:05;;;;;;;21.63;12.38;;;20.70;99.90;;;;;;4997902;28;90578;-32
2023/06/10 07:23:30;;;;;;;16.30;12.85;;;20.70;99.90;;;;;;4997093;28;90563;-33
2023/06/10 07:25:56;;;;;;;17.27;12.63;;;20.80;99.90;;;;;;4997752;28;90944;-33
2023/06/10 07:28:21;;;;;;;18.10;10.52;;;20.80;99.90;;;;;;4997267;28;88207;-32
2023/06/10 07:30:47;;;;;;;18.42;13.60;;;20.80;99.90;;;;;;4997231;28;90496;-36
2023/06/10 07:33:12;;;;;;;18.58;12.63;;;20.80;99.90;;;;;;4997528;28;90537;-32
2023/06/10 07:35:38;;;;;;;13.32;11.65;;;20.90;99.90;;;;;;4997389;28;89444;-35
2023/06/10 07:38:04;;;;;;;14.30;12.40;;;21.00;99.90;;;;;;4997889;28;88455;-36
2023/06/10 07:40:29;;;;;;;16.88;12.80;;;21.00;99.90;;;;;;4997392;28;90217;-36
2023/06/10 07:42:55;;;;;;;13.77;12.27;;;21.10;99.90;;;;;;5000534;28;90523;-32
2023/06/10 07:45:21;;;;;;;12.77;11.55;;;21.30;99.90;;;;;;4995264;28;91629;-31
2023/06/10 07:47:46;;;;;;;14.73;11.65;;;21.40;99.90;;;;;;4992922;28;90092;-34
2023/06/10 07:50:12;;;;;;;11.80;10.55;;;21.60;99.90;;;;;;4993748;28;90716;-32
2023/06/10 07:52:38;;;;;;;12.82;11.63;;;21.70;99.90;;;;;;4992559;28;91303;-31
2023/06/10 07:55:04;;;;;;;16.83;10.73;;;21.80;99.90;;;;;;4994592;28;88978;-32
2023/06/10 07:57:34;;;;;;;11.07;8.93;;;22.10;99.90;;;;;;4995075;28;88315;-34
2023/06/10 08:00:01;;;;;;;15.30;11.65;;;22.10;99.90;;;;;;4994985;28;91790;-32
2023/06/10 08:02:27;;;;;;;12.98;10.77;;;22.10;99.90;;;;;;4993048;28;89628;-34
2023/06/10 08:04:52;;;;;;;13.32;10.00;;;22.10;99.90;;;;;;4992740;28;91571;-31
2023/06/10 08:07:18;;;;;;;10.93;9.85;;;22.40;99.90;;;;;;5000974;28;89536;-32
2023/06/10 08:09:46;;;;;;;13.70;9.65;;;22.60;99.90;;;;;;5002232;28;88702;-30
2023/06/10 08:12:15;;;;;;;23.90;10.50;;;22.70;99.90;;;;;;5005994;28;88781;-33
2023/06/10 08:18:56;;;;;;;13.15;10.18;;;22.60;99.90;;;;;;5012809;28;87568;-31
2023/06/10 08:22:11;;;;;;;14.18;9.60;;;22.60;99.90;;;;;;4931710;28;88126;-32
2023/06/10 09:04:27;;;;;;;8.98;7.25;;;24.10;71.30;;;;;;4993897;22;87803;-33
2023/06/10 09:15:12;;;;;;;11.25;6.90;;;24.20;67.40;;;;;;4956343;28;87612;-33
2023/06/10 09:18:40;;;;;;;8.60;6.50;;;24.30;68.60;;;;;;4953272;28;87841;-31
2023/06/10 10:09:09;;;;;;;6.10;5.50;;;25.30;63.90;;;;;;4989310;22;89387;-32
2023/06/10 13:56:07;;;;;;;4.65;4.25;;;27.10;46.70;;;;;;5021905;28;87884;-34
2023/06/10 14:07:11;;;;;;;4.43;3.80;;;27.10;45.40;;;;;;5027496;22;87949;-33
2023/06/10 14:37:07;;;;;;;4.72;4.30;;;27.30;48.10;;;;;;5008358;22;87657;-33
2023/06/10 16:11:19;;;;;;;5.38;4.38;;;27.40;48.90;;;;;;5029344;22;88914;-32
2023/06/10 16:17:39;;;;;;;7.70;5.85;;;27.40;46.70;;;;;;5065889;22;88066;-33
2023/06/10 16:20:54;;;;;;;5.53;4.25;;;27.30;47.90;;;;;;5034916;27;89376;-32
2023/06/10 16:26:40;;;;;;;3.95;3.65;;;27.20;48.90;;;;;;5051938;22;88013;-35
2023/06/10 16:29:05;;;;;;;7.05;4.57;;;27.10;49.50;;;;;;4954154;28;90005;-33
2023/06/10 16:31:31;;;;;;;3.95;3.65;;;27.00;50.20;;;;;;4956928;28;90160;-37
2023/06/10 16:33:56;;;;;;;6.25;4.70;;;27.10;50.10;;;;;;4956398;28;89309;-33
2023/06/10 16:36:22;;;;;;;6.35;3.95;;;27.00;50.00;;;;;;4956133;28;90011;-37
2023/06/10 16:38:48;;;;;;;4.93;3.90;;;27.00;51.20;;;;;;4956624;28;89782;-36
2023/06/10 16:41:13;;;;;;;8.85;3.78;;;26.90;49.70;;;;;;4955717;28;90247;-36
2023/06/10 16:43:39;;;;;;;5.35;4.13;;;26.90;50.00;;;;;;4956992;28;89633;-33
2023/06/10 16:46:04;;;;;;;5.68;4.00;;;26.90;49.40;;;;;;4956647;28;90858;-33
2023/06/10 16:48:30;;;;;;;7.20;4.40;;;26.80;50.80;;;;;;4956695;28;89773;-32
2023/06/10 16:50:56;;;;;;;4.43;4.03;;;26.60;50.80;;;;;;4957086;28;89966;-36
2023/06/10 16:53:21;;;;;;;6.70;4.70;;;26.60;50.30;;;;;;4956809;28;89013;-37
2023/06/10 16:55:47;;;;;;;6.68;3.65;;;26.70;50.90;;;;;;4957297;28;89357;-35
2023/06/10 16:58:12;;;;;;;4.95;3.90;;;26.70;50.40;;;;;;4955143;28;90950;-38
2023/06/10 17:00:38;;;;;;;5.13;3.80;;;26.70;49.10;;;;;;4956451;28;90024;-35
2023/06/10 17:03:04;;;;;;;4.25;3.85;;;26.60;50.00;;;;;;4957258;28;88956;-37
2023/06/10 17:05:29;;;;;;;5.38;4.13;;;26.60;49.20;;;;;;4956554;28;90024;-37
2023/06/10 17:07:55;;;;;;;3.60;3.30;;;26.50;50.10;;;;;;4956745;28;89673;-38
2023/06/10 17:10:21;;;;;;;3.80;3.22;;;26.50;49.70;;;;;;4956633;28;89421;-36
2023/06/10 17:12:47;;;;;;;3.53;3.22;;;26.60;48.40;;;;;;4957524;28;89532;-42
2023/06/10 17:15:13;;;;;;;4.55;3.97;;;26.50;50.00;;;;;;4956387;28;89635;-34
2023/06/10 17:17:38;;;;;;;5.85;4.25;;;26.40;50.50;;;;;;4956741;28;89698;-34
2023/06/10 17:20:05;;;;;;;4.90;4.25;;;26.30;50.70;;;;;;4954979;28;89833;-35
2023/06/10 17:22:30;;;;;;;4.60;3.92;;;26.30;50.20;;;;;;4955590;28;90127;-34
2023/06/10 17:24:56;;;;;;;4.13;3.80;;;26.10;50.80;;;;;;4955692;28;91137;-35
2023/06/10 17:27:21;;;;;;;5.55;3.88;;;26.10;50.20;;;;;;4955199;28;90339;-35
2023/06/10 17:29:47;;;;;;;8.73;7.45;;;26.20;49.10;;;;;;4955788;28;89995;-37
2023/06/10 17:32:12;;;;;;;4.78;4.18;;;26.10;49.40;;;;;;4955568;28;88713;-32
2023/06/10 17:34:38;;;;;;;6.07;4.18;;;26.00;49.00;;;;;;4956293;28;90486;-37
2023/06/10 17:37:04;;;;;;;6.40;4.68;;;25.90;49.80;;;;;;4956011;28;89589;-38
2023/06/10 17:39:29;;;;;;;3.17;2.85;;;25.90;49.90;;;;;;4954420;28;89918;-37
2023/06/10 17:41:55;;;;;;;4.70;3.60;;;25.80;50.20;;;;;;4955871;28;89744;-35
2023/06/10 17:44:24;;;;;;;7.15;3.35;;;25.70;50.50;;;;;;4955248;28;90780;-33
2023/06/10 17:46:51;;;;;;;3.65;2.92;;;25.70;51.40;;;;;;4955753;28;90610;-36
2023/06/10 17:49:17;;;;;;;4.13;3.37;;;25.70;51.20;;;;;;4955707;28;90056;-34
2023/06/10 17:51:42;;;;;;;5.03;3.20;;;25.60;51.30;;;;;;4955331;28;89775;-34
2023/06/10 17:54:08;;;;;;;4.25;3.85;;;25.60;51.40;;;;;;4955482;28;90829;-38
2023/06/10 17:56:34;;;;;;;3.28;2.97;;;25.60;51.40;;;;;;4958402;28;89715;-36
2023/06/10 17:58:59;;;;;;;3.65;3.35;;;25.60;51.10;;;;;;4971394;28;89112;-38
2023/06/10 18:01:25;;;;;;;5.47;3.05;;;25.60;50.80;;;;;;4959433;28;89096;-34
2023/06/10 18:03:50;;;;;;;3.78;2.88;;;25.50;51.00;;;;;;4958768;28;90265;-35
2023/06/10 18:06:16;;;;;;;3.85;3.05;;;25.40;51.30;;;;;;4958836;28;89674;-36
2023/06/10 18:08:42;;;;;;;3.78;3.40;;;25.40;51.70;;;;;;4958874;28;89513;-34
2023/06/10 18:11:07;;;;;;;3.75;3.42;;;25.30;52.20;;;;;;4959216;28;89998;-36
2023/06/10 18:13:33;;;;;;;5.40;3.58;;;25.40;52.40;;;;;;4958729;28;89879;-34
2023/06/10 18:16:01;;;;;;;7.05;3.38;;;25.30;53.00;;;;;;4958870;28;89556;-38
2023/06/10 18:18:28;;;;;;;4.32;3.63;;;25.20;53.40;;;;;;4958598;28;90137;-38
2023/06/10 18:20:53;;;;;;;4.85;3.80;;;25.20;53.30;;;;;;4959981;28;89453;-33
2023/06/10 18:23:19;;;;;;;4.10;3.30;;;25.20;53.70;;;;;;4958510;28;90738;-32
2023/06/10 18:25:45;;;;;;;3.67;3.17;;;25.20;54.10;;;;;;4959683;28;90419;-36
2023/06/10 18:28:10;;;;;;;4.28;3.90;;;25.10;54.40;;;;;;4970840;28;90528;-33
2023/06/10 18:30:36;;;;;;;3.85;3.45;;;25.10;54.60;;;;;;4982864;28;88765;-37
2023/06/10 18:33:01;;;;;;;3.15;2.60;;;25.00;54.60;;;;;;4978226;28;89869;-33
2023/06/10 18:35:27;;;;;;;5.55;3.38;;;24.90;55.00;;;;;;4978367;28;90453;-37
2023/06/10 18:37:53;;;;;;;3.67;3.20;;;24.90;55.00;;;;;;4978879;28;90378;-33
2023/06/10 18:40:19;;;;;;;3.63;3.03;;;24.80;55.00;;;;;;4978935;28;90012;-33
2023/06/10 18:42:44;;;;;;;5.47;3.17;;;24.70;55.10;;;;;;4978732;28;89937;-35
2023/06/10 18:45:11;;;;;;;4.55;3.05;;;24.70;55.40;;;;;;4978012;28;89676;-35
2023/06/10 18:47:37;;;;;;;3.83;3.15;;;24.60;55.80;;;;;;4978347;28;89498;-37
2023/06/10 18:50:03;;;;;;;3.60;3.30;;;24.50;55.90;;;;;;4979470;28;89525;-34
2023/06/10 18:52:28;;;;;;;3.83;3.50;;;24.30;56.80;;;;;;4977539;28;90149;-37
2023/06/10 18:54:54;;;;;;;5.28;3.75;;;24.20;58.10;;;;;;4978128;28;89493;-36
2023/06/10 18:57:20;;;;;;;5.88;3.95;;;24.10;60.40;;;;;;4974787;28;90760;-38
2023/06/10 18:59:46;;;;;;;6.45;4.43;;;23.90;61.30;;;;;;4978523;28;89078;-35
2023/06/10 19:02:11;;;;;;;3.83;3.05;;;23.80;61.70;;;;;;4979215;28;90483;-35
2023/06/10 19:04:37;;;;;;;15.68;4.35;;;23.70;61.90;;;;;;4978608;28;90602;-35
2023/06/10 19:07:03;;;;;;;13.63;3.97;;;23.70;61.80;;;;;;4977793;28;89706;-34
2023/06/10 19:09:28;;;;;;;7.93;3.50;;;23.60;61.70;;;;;;4978700;28;89404;-36
2023/06/10 19:11:54;;;;;;;6.95;4.78;;;23.50;61.80;;;;;;4978006;28;90737;-38
2023/06/10 19:14:19;;;;;;;9.07;3.78;;;23.40;62.40;;;;;;4986700;28;88267;-36
2023/06/10 19:16:45;;;;;;;6.05;3.47;;;23.30;63.30;;;;;;4978382;28;89350;-38
2023/06/10 19:19:11;;;;;;;6.18;3.75;;;23.20;63.90;;;;;;4978964;28;88644;-34
2023/06/10 19:21:36;;;;;;;3.97;3.58;;;23.20;64.60;;;;;;4977683;28;90137;-33
2023/06/10 19:24:03;;;;;;;6.28;3.97;;;23.00;65.90;;;;;;4978466;28;90659;-33
2023/06/10 19:26:28;;;;;;;3.80;3.50;;;23.00;66.50;;;;;;4977858;28;90760;-35
2023/06/10 19:28:54;;;;;;;4.28;3.72;;;22.90;67.20;;;;;;4978120;28;89554;-35
2023/06/10 19:31:20;;;;;;;5.60;4.22;;;22.80;67.50;;;;;;4978431;28;90488;-36
2023/06/10 19:33:45;;;;;;;6.00;3.30;;;22.70;67.90;;;;;;4977624;28;90235;-35
2023/06/10 19:36:11;;;;;;;8.38;4.05;;;22.70;68.80;;;;;;4977993;28;89007;-33
2023/06/10 19:38:37;;;;;;;4.82;3.67;;;22.60;68.20;;;;;;4978733;28;90140;-34
2023/06/10 19:41:03;;;;;;;5.85;4.22;;;22.50;69.40;;;;;;4978587;28;88981;-38
2023/06/10 19:43:29;;;;;;;5.30;3.20;;;22.50;69.80;;;;;;4977841;28;90141;-34
2023/06/10 19:45:55;;;;;;;3.80;3.50;;;22.40;71.40;;;;;;4977684;28;89674;-34
2023/06/10 19:48:21;;;;;;;4.05;3.67;;;22.30;71.40;;;;;;4978131;28;90514;-36
2023/06/10 19:50:46;;;;;;;6.32;4.03;;;22.30;73.00;;;;;;4977935;28;89965;-32
2023/06/10 19:53:12;;;;;;;4.70;3.88;;;22.20;75.80;;;;;;4977053;28;89803;-36
2023/06/10 19:55:37;;;;;;;3.53;2.97;;;22.10;79.50;;;;;;4977420;28;89722;-35
2023/06/10 19:58:03;;;;;;;4.13;3.72;;;22.10;84.80;;;;;;4978818;28;89052;-37
2023/06/10 20:00:29;;;;;;;3.92;3.33;;;21.90;88.50;;;;;;4978780;28;89837;-33
2023/06/10 20:02:54;;;;;;;4.45;3.60;;;21.90;90.20;;;;;;4979113;28;89733;-34
2023/06/10 20:05:21;;;;;;;4.20;3.63;;;21.80;90.50;;;;;;4978771;28;89523;-36
2023/06/10 20:07:47;;;;;;;2.80;2.60;;;21.70;91.60;;;;;;4979900;28;89654;-34
2023/06/10 20:10:15;;;;;;;3.50;3.20;;;21.60;93.40;;;;;;4978105;28;89303;-36
2023/06/10 20:12:41;;;;;;;7.20;4.25;;;21.60;93.00;;;;;;4979131;28;90699;-37
2023/06/10 20:15:07;;;;;;;4.47;3.08;;;21.50;90.60;;;;;;4979379;28;90180;-33
2023/06/10 20:17:34;;;;;;;4.25;3.83;;;21.50;92.20;;;;;;4978813;28;89493;-32